Time;durP1;ratioP1;P1;durP2;ratioP2;P2;SDS_P1;SDS_P2;PMS_P1;PMS_P2;Temp;Humidity;BMP_temperature;BMP_pressure;BME280_temperature;BME280_humidity;BME280_pressure;Samples;Min_cycle;Max_cycle;Signal;HPM_P1;HPM_P2
2022/08/06 00:01:47;;;;;;;;;;;;;;;14.72;63.88;102588.22;5097006;28;20056;-36
2022/08/06 00:04:12;;;;;;;;;;;;;;;14.64;62.66;102580.28;5096299;28;19940;-36
2022/08/06 00:06:37;;;;;;;;;;;;;;;14.57;62.28;102574.88;5096275;28;20447;-36
2022/08/06 00:09:03;;;;;;;;;;;;;;;14.54;63.08;102586.22;5096247;28;20010;-36
2022/08/06 00:11:28;;;;;;;;;;;;;;;14.52;62.57;102582.00;5096827;28;19968;-36
2022/08/06 00:13:53;;;;;;;;;;;;;;;14.52;63.76;102585.56;5097167;28;20001;-36
2022/08/06 00:16:18;;;;;;;;;;;;;;;14.43;65.07;102590.38;5096934;28;19912;-36
2022/08/06 00:18:43;;;;;;;;;;;;;;;14.34;64.16;102596.25;5096090;28;19912;-36
2022/08/06 00:21:09;;;;;;;;;;;;;;;14.31;64.35;102597.53;5096335;28;19923;-37
2022/08/06 00:23:34;;;;;;;;;;;;;;;14.27;65.15;102590.03;5095961;28;19912;-36
2022/08/06 00:25:59;;;;;;;;;;;;;;;14.18;65.41;102600.28;5094625;28;19912;-36
2022/08/06 00:28:25;;;;;;;;;;;;;;;14.12;65.47;102593.81;5095853;28;19922;-36
2022/08/06 00:30:51;;;;;;;;;;;;;;;14.07;65.48;102601.78;5096390;28;19912;-36
2022/08/06 00:33:16;;;;;;;;;;;;;;;14.07;64.96;102603.66;5096078;28;20371;-36
2022/08/06 00:35:41;;;;;;;;;;;;;;;14.08;64.94;102608.88;5096061;28;19912;-36
2022/08/06 00:38:07;;;;;;;;;;;;;;;14.09;64.33;102607.84;5096146;28;20314;-36
2022/08/06 00:40:32;;;;;;;;;;;;;;;14.09;64.41;102607.84;5095790;28;19999;-36
2022/08/06 00:42:58;;;;;;;;;;;;;;;14.08;65.73;102608.06;5095872;28;19970;-36
2022/08/06 00:45:23;;;;;;;;;;;;;;;14.05;65.39;102609.28;5096155;28;19934;-36
2022/08/06 00:47:49;;;;;;;;;;;;;;;14.01;64.90;102616.22;5095688;28;20010;-36
2022/08/06 00:50:14;;;;;;;;;;;;;;;14.00;64.92;102614.53;5096269;28;20006;-36
2022/08/06 00:52:39;;;;;;;;;;;;;;;14.02;64.58;102609.75;5095535;28;19919;-36
2022/08/06 00:55:04;;;;;;;;;;;;;;;14.03;64.83;102616.84;5095454;28;19912;-36
2022/08/06 00:57:30;;;;;;;;;;;;;;;14.01;63.95;102623.56;5095333;28;19912;-36
2022/08/06 00:59:55;;;;;;;;;;;;;;;13.99;64.50;102622.91;5095662;28;19919;-36
2022/08/06 01:02:20;;;;;;;;;;;;;;;13.99;64.37;102625.63;5095743;28;20342;-36
2022/08/06 01:04:45;;;;;;;;;;;;;;;13.97;64.53;102630.47;5095464;28;20350;-36
2022/08/06 01:07:10;;;;;;;;;;;;;;;13.95;64.74;102627.94;5094862;28;19941;-37
2022/08/06 01:09:36;;;;;;;;;;;;;;;13.97;64.67;102625.03;5094882;28;19953;-36
2022/08/06 01:12:01;;;;;;;;;;;;;;;14.02;64.28;102625.22;5095154;28;19947;-36
2022/08/06 01:14:27;;;;;;;;;;;;;;;14.04;65.17;102628.56;5095609;28;19912;-36
2022/08/06 01:17:01;;;;;;;;;;;;;;;14.07;64.61;102626.25;5095795;28;19912;-36
2022/08/06 01:19:45;;;;;;;;;;;;;;;14.07;64.60;102636.31;5094667;28;19912;-36
2022/08/06 01:22:13;;;;;;;;;;;;;;;14.05;64.97;102641.94;5094968;28;19999;-36
2022/08/06 01:24:45;;;;;;;;;;;;;;;14.05;64.68;102641.09;5094781;28;20337;-36
2022/08/06 01:27:26;;;;;;;;;;;;;;;14.04;64.78;102650.31;5095105;28;20295;-36
2022/08/06 01:29:54;;;;;;;;;;;;;;;13.97;65.06;102647.63;5095004;28;19967;-36
2022/08/06 01:32:24;;;;;;;;;;;;;;;13.94;65.11;102648.03;5093483;28;19916;-36
2022/08/06 01:34:58;;;;;;;;;;;;;;;13.92;65.41;102641.97;5094847;28;20324;-37
2022/08/06 01:37:27;;;;;;;;;;;;;;;13.87;66.81;102656.19;5095148;28;19911;-37
2022/08/06 01:39:55;;;;;;;;;;;;;;;13.81;65.94;102658.88;5094574;28;19912;-36
2022/08/06 01:42:21;;;;;;;;;;;;;;;13.79;65.42;102656.38;5094550;28;19916;-36
2022/08/06 01:44:48;;;;;;;;;;;;;;;13.81;65.79;102651.59;5094358;28;19912;-36
2022/08/06 01:47:15;;;;;;;;;;;;;;;13.81;65.82;102656.16;5094535;28;19964;-36
2022/08/06 01:49:43;;;;;;;;;;;;;;;13.81;65.62;102656.16;5094085;28;20006;-37
2022/08/06 01:52:10;;;;;;;;;;;;;;;13.82;65.83;102650.53;5094839;28;19923;-36
2022/08/06 01:54:37;;;;;;;;;;;;;;;13.80;65.69;102643.63;5094765;28;19956;-36
2022/08/06 01:57:03;;;;;;;;;;;;;;;13.79;65.59;102648.22;5094180;28;20318;-36
2022/08/06 01:59:31;;;;;;;;;;;;;;;13.80;65.88;102654.50;5094454;28;19916;-36
2022/08/06 02:01:58;;;;;;;;;;;;;;;13.80;65.92;102659.94;5094677;28;19916;-36
2022/08/06 02:04:25;;;;;;;;;;;;;;;13.76;66.19;102647.81;5094340;28;19973;-36
2022/08/06 02:06:51;;;;;;;;;;;;;;;13.72;66.52;102641.97;5093515;28;19919;-36
2022/08/06 02:09:19;;;;;;;;;;;;;;;13.68;66.31;102642.59;5094071;28;20363;-36
2022/08/06 02:11:47;;;;;;;;;;;;;;;13.65;66.14;102632.94;5094212;28;20256;-36
2022/08/06 02:14:14;;;;;;;;;;;;;;;13.62;66.24;102646.97;5094488;28;19998;-36
2022/08/06 02:16:41;;;;;;;;;;;;;;;13.60;66.74;102654.47;5094355;28;19998;-36
2022/08/06 02:19:07;;;;;;;;;;;;;;;13.56;66.83;102653.22;5093760;28;20352;-37
2022/08/06 02:21:34;;;;;;;;;;;;;;;13.54;66.40;102652.59;5094055;28;19912;-36
2022/08/06 02:24:04;;;;;;;;;;;;;;;13.52;66.85;102647.38;5093432;28;20241;-37
2022/08/06 02:26:30;;;;;;;;;;;;;;;13.49;66.70;102655.94;5093180;28;19912;-36
2022/08/06 02:28:56;;;;;;;;;;;;;;;13.44;66.86;102661.16;5093697;28;19931;-36
2022/08/06 02:31:22;;;;;;;;;;;;;;;13.40;67.50;102659.88;5093956;28;19912;-36
2022/08/06 02:33:47;;;;;;;;;;;;;;;13.39;67.08;102658.22;5093644;28;19923;-36
2022/08/06 02:36:16;;;;;;;;;;;;;;;13.37;67.06;102657.56;5094177;28;19912;-36
2022/08/06 02:38:45;;;;;;;;;;;;;;;13.35;66.87;102657.78;5093238;28;19911;-36
2022/08/06 02:41:10;;;;;;;;;;;;;;;13.36;66.98;102655.91;5094148;28;19965;-37
2022/08/06 02:43:38;;;;;;;;;;;;;;;13.35;67.25;102656.94;5094192;28;19916;-36
2022/08/06 02:46:13;;;;;;;;;;;;;;;13.31;67.41;102655.69;5093708;28;20035;-36
2022/08/06 02:48:51;;;;;;;;;;;;;;;13.27;67.75;102654.41;5094194;28;19984;-36
2022/08/06 02:51:25;;;;;;;;;;;;;;;13.22;67.50;102657.75;5093891;28;19912;-36
2022/08/06 02:54:10;;;;;;;;;;;;;;;13.17;67.75;102656.66;5093888;28;19912;-36
2022/08/06 02:56:37;;;;;;;;;;;;;;;13.10;68.69;102659.34;5092930;28;19920;-35
2022/08/06 02:59:03;;;;;;;;;;;;;;;13.05;69.64;102659.97;5093295;28;19912;-35
2022/08/06 03:01:31;;;;;;;;;;;;;;;12.97;68.82;102665.56;5093677;28;20383;-35
2022/08/06 03:03:57;;;;;;;;;;;;;;;12.94;69.78;102668.69;5092106;28;20263;-35
2022/08/06 03:06:24;;;;;;;;;;;;;;;12.93;68.54;102668.88;5093241;28;20018;-35
2022/08/06 03:08:52;;;;;;;;;;;;;;;12.93;69.57;102666.16;5093293;28;20318;-35
2022/08/06 03:11:19;;;;;;;;;;;;;;;12.87;70.39;102668.66;5093461;28;20060;-36
2022/08/06 03:13:45;;;;;;;;;;;;;;;12.81;68.96;102669.47;5093186;28;20393;-36
2022/08/06 03:16:10;;;;;;;;;;;;;;;12.78;69.85;102678.00;5093391;28;19912;-36
2022/08/06 03:18:36;;;;;;;;;;;;;;;12.73;70.40;102679.66;5093471;28;19934;-36
2022/08/06 03:21:02;;;;;;;;;;;;;;;12.69;69.14;102670.22;5097486;28;20001;-36
2022/08/06 03:23:28;;;;;;;;;;;;;;;12.67;69.69;102675.03;5097083;28;20420;-36
2022/08/06 03:25:56;;;;;;;;;;;;;;;12.67;68.90;102678.56;5097792;28;19912;-36
2022/08/06 03:28:22;;;;;;;;;;;;;;;12.69;69.36;102678.38;5097733;28;19912;-36
2022/08/06 03:30:48;;;;;;;;;;;;;;;12.68;69.76;102684.84;5097820;28;20260;-36
2022/08/06 03:33:15;;;;;;;;;;;;;;;12.63;69.58;102686.28;5096971;28;19912;-36
2022/08/06 03:35:40;;;;;;;;;;;;;;;12.59;69.10;102687.72;5097200;28;20015;-36
2022/08/06 03:38:07;;;;;;;;;;;;;;;12.60;69.07;102686.69;5097195;28;19963;-36
2022/08/06 03:40:33;;;;;;;;;;;;;;;12.58;69.38;102682.47;5097112;28;19912;-36
2022/08/06 03:42:59;;;;;;;;;;;;;;;12.56;69.74;102679.97;5096654;28;20385;-35
2022/08/06 03:45:26;;;;;;;;;;;;;;;12.53;70.19;102682.25;5096912;28;19912;-35
2022/08/06 03:47:52;;;;;;;;;;;;;;;12.51;69.81;102687.06;5096347;28;20372;-35
2022/08/06 03:50:31;;;;;;;;;;;;;;;12.51;70.11;102679.75;5096897;28;19922;-35
2022/08/06 03:53:00;;;;;;;;;;;;;;;12.50;69.96;102683.50;5096784;28;19912;-35
2022/08/06 03:55:27;;;;;;;;;;;;;;;12.48;69.28;102685.56;5096650;28;19916;-35
2022/08/06 03:57:55;;;;;;;;;;;;;;;12.49;70.01;102695.41;5096174;28;19916;-35
2022/08/06 04:00:22;;;;;;;;;;;;;;;12.48;69.69;102695.56;5096720;28;20309;-35
2022/08/06 04:02:50;;;;;;;;;;;;;;;12.46;70.06;102697.66;5096448;28;19935;-36
2022/08/06 04:05:17;;;;;;;;;;;;;;;12.42;70.39;102702.63;5096616;28;19915;-36
2022/08/06 04:07:43;;;;;;;;;;;;;;;12.40;70.74;102707.44;5095959;28;19912;-36
2022/08/06 04:10:09;;;;;;;;;;;;;;;12.36;70.62;102711.56;5095165;28;20259;-36
2022/08/06 04:12:34;;;;;;;;;;;;;;;12.36;70.59;102706.16;5095874;28;20010;-36
2022/08/06 04:15:00;;;;;;;;;;;;;;;12.35;70.22;102713.44;5096695;28;19970;-36
2022/08/06 04:17:27;;;;;;;;;;;;;;;12.37;71.66;102713.25;5096311;28;19914;-36
2022/08/06 04:19:53;;;;;;;;;;;;;;;12.32;72.17;102716.53;5096115;28;19912;-36
2022/08/06 04:22:19;;;;;;;;;;;;;;;12.30;70.83;102715.91;5096031;28;19951;-36
2022/08/06 04:24:44;;;;;;;;;;;;;;;12.31;70.81;102714.03;5096423;28;19959;-36
2022/08/06 04:27:10;;;;;;;;;;;;;;;12.31;70.39;102719.47;5095941;28;19912;-35
2022/08/06 04:29:38;;;;;;;;;;;;;;;12.31;71.29;102724.91;5095075;28;19961;-36
2022/08/06 04:32:04;;;;;;;;;;;;;;;12.30;71.63;102728.66;5096177;28;19919;-36
2022/08/06 04:34:30;;;;;;;;;;;;;;;12.27;71.45;102729.03;5096507;28;20248;-36
2022/08/06 04:36:57;;;;;;;;;;;;;;;12.26;71.71;102735.50;5095712;28;20386;-36
2022/08/06 04:39:23;;;;;;;;;;;;;;;12.28;71.22;102731.53;5095750;28;19919;-36
2022/08/06 04:41:49;;;;;;;;;;;;;;;12.34;71.96;102727.19;5095668;28;20279;-35
2022/08/06 04:44:14;;;;;;;;;;;;;;;12.39;70.85;102727.44;5095462;28;20332;-36
2022/08/06 04:46:40;;;;;;;;;;;;;;;12.48;70.92;102739.00;5095654;28;19919;-36
2022/08/06 04:49:05;;;;;;;;;;;;;;;12.54;70.75;102732.75;5095943;28;20006;-36
2022/08/06 04:51:30;;;;;;;;;;;;;;;12.57;70.99;102732.38;5096294;28;20300;-36
2022/08/06 04:53:56;;;;;;;;;;;;;;;12.61;70.61;102737.22;5095896;28;19916;-36
2022/08/06 04:56:21;;;;;;;;;;;;;;;12.67;70.45;102730.16;5095638;28;20316;-35
2022/08/06 04:58:47;;;;;;;;;;;;;;;12.73;70.03;102739.38;5095284;28;19912;-35
2022/08/06 05:01:12;;;;;;;;;;;;;;;12.77;70.06;102740.66;5095394;28;19922;-35
2022/08/06 05:03:38;;;;;;;;;;;;;;;12.85;70.92;102740.50;5095784;28;19932;-35
2022/08/06 05:06:09;;;;;;;;;;;;;;;12.89;70.08;102739.06;5095422;28;19912;-36
2022/08/06 05:08:36;;;;;;;;;;;;;;;12.92;70.34;102744.06;5095157;28;19977;-35
2022/08/06 05:11:05;;;;;;;;;;;;;;;12.98;70.36;102748.72;5095415;28;20018;-35
2022/08/06 05:13:33;;;;;;;;;;;;;;;13.04;70.49;102745.19;5095246;28;20006;-35
2022/08/06 05:16:00;;;;;;;;;;;;;;;13.12;70.52;102745.00;5095495;28;19912;-35
2022/08/06 05:18:29;;;;;;;;;;;;;;;13.19;69.84;102755.94;5094600;28;20438;-35
2022/08/06 05:20:55;;;;;;;;;;;;;;;13.25;70.38;102755.16;5094908;28;20459;-35
2022/08/06 05:23:24;;;;;;;;;;;;;;;13.34;70.15;102763.97;5094805;28;19969;-35
2022/08/06 05:25:49;;;;;;;;;;;;;;;13.46;70.44;102758.78;5094484;28;19912;-36
2022/08/06 05:28:14;;;;;;;;;;;;;;;13.54;71.15;102764.88;5094658;28;19935;-36
2022/08/06 05:30:47;;;;;;;;;;;;;;;13.60;71.28;102764.03;5095178;28;19995;-36
2022/08/06 05:33:32;;;;;;;;;;;;;;;13.65;71.30;102764.28;5094877;28;20380;-35
2022/08/06 05:35:58;;;;;;;;;;;;;;;13.72;71.83;102768.91;5095112;28;20396;-35
2022/08/06 05:38:25;;;;;;;;;;;;;;;13.77;70.81;102769.13;5094799;28;19919;-36
2022/08/06 05:40:51;;;;;;;;;;;;;;;13.87;70.67;102777.72;5094748;28;19922;-36
2022/08/06 05:43:16;;;;;;;;;;;;;;;13.98;70.92;102770.84;5093769;28;19924;-36
2022/08/06 05:45:43;;;;;;;;;;;;;;;14.08;70.11;102769.38;5094188;28;20261;-36
2022/08/06 05:48:10;;;;;;;;;;;;;;;14.21;70.06;102775.91;5094131;28;20459;-36
2022/08/06 05:50:40;;;;;;;;;;;;;;;14.33;70.16;102774.22;5094362;28;19966;-36
2022/08/06 05:53:09;;;;;;;;;;;;;;;14.45;70.08;102778.00;5094313;28;19923;-36
2022/08/06 05:55:38;;;;;;;;;;;;;;;14.57;69.63;102775.50;5094244;28;20370;-36
2022/08/06 05:58:10;;;;;;;;;;;;;;;14.61;69.67;102768.59;5094243;28;20020;-36
2022/08/06 06:00:37;;;;;;;;;;;;;;;14.76;69.27;102779.25;5094454;28;19922;-36
2022/08/06 06:03:04;;;;;;;;;;;;;;;14.82;69.39;102781.13;5094415;28;19912;-36
2022/08/06 06:05:30;;;;;;;;;;;;;;;14.87;69.84;102784.88;5094509;28;20034;-36
2022/08/06 06:07:55;;;;;;;;;;;;;;;14.92;71.20;102784.22;5094553;28;20014;-36
2022/08/06 06:10:24;;;;;;;;;;;;;;;14.98;70.47;102782.53;5094047;28;20284;-36
2022/08/06 06:12:49;;;;;;;;;;;;;;;15.02;71.38;102784.63;5094036;28;19912;-36
2022/08/06 06:15:16;;;;;;;;;;;;;;;15.05;71.16;102786.09;5094015;28;20057;-36
2022/08/06 06:18:07;;;;;;;;;;;;;;;15.07;70.67;102782.09;5093545;28;19964;-36
2022/08/06 06:20:36;;;;;;;;;;;;;;;15.14;70.06;102788.38;5092322;28;19912;-36
2022/08/06 06:23:11;;;;;;;;;;;;;;;15.21;69.87;102793.81;5093621;28;19919;-36
2022/08/06 06:25:59;;;;;;;;;;;;;;;15.31;69.84;102787.91;5093645;28;20352;-36
2022/08/06 06:28:28;;;;;;;;;;;;;;;15.39;70.12;102784.94;5093378;28;19912;-36
2022/08/06 06:31:00;;;;;;;;;;;;;;;15.47;69.90;102781.97;5093596;28;20287;-36
2022/08/06 06:33:48;;;;;;;;;;;;;;;15.52;70.83;102787.63;5093578;28;20268;-36
2022/08/06 06:36:31;;;;;;;;;;;;;;;15.54;70.20;102782.78;5070866;28;20007;-35
2022/08/06 06:39:08;;;;;;;;;;;;;;;15.59;69.70;102791.13;5071053;28;20435;-36
2022/08/06 06:41:36;;;;;;;;;;;;;;;15.67;69.83;102787.38;5071003;28;19913;-36
2022/08/06 06:44:11;;;;;;;;;;;;;;;15.74;69.95;102795.50;5070867;28;19919;-36
2022/08/06 06:46:46;;;;;;;;;;;;;;;15.81;69.65;102780.78;5071221;28;19928;-36
2022/08/06 06:49:15;;;;;;;;;;;;;;;15.89;69.80;102793.31;5071301;28;19957;-36
2022/08/06 06:51:43;;;;;;;;;;;;;;;15.95;69.80;102796.00;5071128;28;19969;-35
2022/08/06 06:54:20;;;;;;;;;;;;;;;16.04;69.30;102803.91;5070652;28;19986;-35
2022/08/06 06:56:47;;;;;;;;;;;;;;;16.17;69.51;102799.22;5070966;28;19912;-35
2022/08/06 06:59:15;;;;;;;;;;;;;;;16.28;69.84;102803.13;5071372;28;19912;-35
2022/08/06 07:01:42;;;;;;;;;;;;;;;16.34;69.49;102802.22;5070524;28;19935;-36
2022/08/06 07:04:09;;;;;;;;;;;;;;;16.41;68.66;102804.91;5071364;28;19916;-36
2022/08/06 07:06:35;;;;;;;;;;;;;;;16.46;68.93;102800.47;5070549;28;19970;-36
2022/08/06 07:09:01;;;;;;;;;;;;;;;16.54;68.17;102804.78;5070556;28;19924;-36
2022/08/06 07:11:27;;;;;;;;;;;;;;;16.56;68.22;102802.69;5071050;28;19923;-36
2022/08/06 07:13:53;;;;;;;;;;;;;;;16.59;68.41;102802.25;5088226;28;19974;-35
2022/08/06 07:16:20;;;;;;;;;;;;;;;16.60;67.69;102806.66;5093845;28;20042;-36
2022/08/06 07:18:47;;;;;;;;;;;;;;;16.66;68.09;102805.75;5093057;28;19912;-36
2022/08/06 07:21:14;;;;;;;;;;;;;;;16.73;68.22;102808.44;5093675;28;19912;-36
2022/08/06 07:23:39;;;;;;;;;;;;;;;16.77;67.96;102797.91;5092751;28;19947;-35
2022/08/06 07:26:05;;;;;;;;;;;;;;;16.83;68.05;102797.00;5093525;28;20046;-35
2022/08/06 07:28:31;;;;;;;;;;;;;;;16.89;67.39;102798.84;5092385;28;20316;-35
2022/08/06 07:30:58;;;;;;;;;;;;;;;16.93;67.79;102800.03;5076420;28;19955;-35
2022/08/06 07:33:24;;;;;;;;;;;;;;;16.98;67.55;102811.13;5073115;28;19958;-36
2022/08/06 07:35:51;;;;;;;;;;;;;;;17.02;67.84;102804.16;5073007;28;19935;-35
2022/08/06 07:38:18;;;;;;;;;;;;;;;17.07;67.40;102809.78;5072841;28;20007;-36
2022/08/06 07:40:44;;;;;;;;;;;;;;;17.06;67.37;102808.09;5073837;28;19917;-35
2022/08/06 07:43:15;;;;;;;;;;;;;;;17.10;67.42;102814.78;5073479;28;19971;-35
2022/08/06 07:45:40;;;;;;;;;;;;;;;17.16;66.47;102823.97;5072958;28;19924;-35
2022/08/06 07:48:07;;;;;;;;;;;;;;;17.23;66.50;102825.59;5072789;28;19913;-36
2022/08/06 07:50:33;;;;;;;;;;;;;;;17.33;65.40;102827.81;5083913;28;19916;-35
2022/08/06 07:52:58;;;;;;;;;;;;;;;17.41;65.10;102826.63;5093474;28;19912;-36
2022/08/06 07:55:25;;;;;;;;;;;;;;;17.42;64.45;102822.84;5093194;28;19912;-36
2022/08/06 07:57:51;;;;;;;;;;;;;;;17.47;64.73;102825.72;5092842;28;19918;-36
2022/08/06 08:02:28;;;;;;;3.10;0.70;;;;;;;17.57;63.88;102827.91;5069781;28;20390;-36
2022/08/06 08:07:38;;;;;;;2.30;0.70;;;;;;;17.64;63.07;102826.78;5070662;28;20529;-36
2022/08/06 08:10:03;;;;;;;;;;;;;;;17.78;63.59;102830.22;5069219;28;20056;-36
2022/08/06 08:12:29;;;;;;;4.35;0.80;;;;;;;17.86;61.76;102826.28;5069668;28;19908;-36
2022/08/06 08:14:54;;;;;;;;;;;;;;;18.00;62.75;102825.88;5070452;28;20029;-36
2022/08/06 08:17:19;;;;;;;10.90;1.27;;;;;;;18.09;60.64;102834.59;5069643;28;19908;-36
2022/08/06 08:19:45;;;;;;;;;;;;;;;18.23;61.81;102830.59;5070304;28;20774;-36
2022/08/06 08:22:16;;;;;;;2.23;0.70;;;;;;;18.15;59.37;102802.72;5070055;28;20268;-36
2022/08/06 08:24:44;;;;;;;2.53;0.88;;;;;;;18.35;56.90;102832.53;5068553;28;20522;-35
2022/08/06 08:27:10;;;;;;;3.80;0.95;;;;;;;18.35;55.45;102838.88;5069666;28;20053;-35
2022/08/06 08:29:40;;;;;;;4.25;1.00;;;;;;;18.31;56.20;102826.69;5069608;28;20094;-36
2022/08/06 08:32:07;;;;;;;2.58;0.75;;;;;;;18.37;56.34;102833.13;5069907;28;20025;-36
2022/08/06 08:34:33;;;;;;;1.92;0.70;;;;;;;18.37;55.98;102830.41;5069248;28;20036;-36
2022/08/06 08:36:58;;;;;;;4.18;0.80;;;;;;;18.53;56.76;102829.69;5070072;28;20020;-35
2022/08/06 08:39:24;;;;;;;;;;;;;;;18.83;56.69;102828.81;5069913;28;20106;-36
2022/08/06 08:41:54;;;;;;;4.27;0.90;;;;;;;18.86;56.26;102833.81;5070100;28;20070;-35
2022/08/06 08:44:24;;;;;;;4.50;1.25;;;;;;;18.76;56.64;102832.50;5069041;28;20036;-36
2022/08/06 08:46:50;;;;;;;4.70;0.80;;;;;;;18.79;55.07;102828.47;5069770;28;20417;-35
2022/08/06 08:49:24;;;;;;;3.20;0.90;;;;;;;18.78;54.61;102827.59;5069220;28;20025;-36
2022/08/06 08:51:50;;;;;;;3.13;0.57;;;;;;;19.03;53.17;102840.22;5069897;28;20498;-36
2022/08/06 08:54:20;;;;;;;1.48;0.50;;;;;;;19.04;52.11;102840.00;5069476;28;20103;-36
2022/08/06 08:56:47;;;;;;;4.90;0.60;;;;;;;19.02;52.17;102836.66;5069104;28;20039;-36
2022/08/06 08:59:14;;;;;;;2.80;0.60;;;;;;;19.09;53.78;102836.56;5068977;28;20058;-35
2022/08/06 09:01:39;;;;;;;2.03;0.50;;;;;;;18.97;53.49;102833.78;5069138;28;20129;-35
2022/08/06 09:04:05;;;;;;;4.40;0.80;;;;;;;18.97;54.20;102841.19;5069281;28;20021;-35
2022/08/06 09:06:32;;;;;;;;;;;;;;;19.28;54.40;102838.06;5066896;28;20036;-35
2022/08/06 09:09:03;;;;;;;2.38;0.55;;;;;;;19.30;52.70;102829.59;5069047;28;19912;-36
2022/08/06 09:11:30;;;;;;;3.03;0.68;;;;;;;19.36;50.34;102838.75;5068923;28;20132;-35
2022/08/06 09:13:55;;;;;;;2.30;0.60;;;;;;;19.53;51.66;102843.25;5055087;28;20108;-36
2022/08/06 09:16:21;;;;;;;2.25;0.68;;;;;;;19.67;49.15;102845.78;5055595;28;20449;-36
2022/08/06 09:18:46;;;;;;;2.15;0.52;;;;;;;19.72;48.17;102843.13;5055561;28;20087;-36
2022/08/06 09:21:12;;;;;;;1.25;0.60;;;;;;;19.89;48.08;102843.16;5055681;28;20102;-36
2022/08/06 09:23:39;;;;;;;2.38;0.50;;;;;;;19.95;48.08;102842.19;5055755;28;20099;-36
2022/08/06 09:26:05;;;;;;;2.60;0.63;;;;;;;19.97;48.34;102842.78;5055701;28;20041;-36
2022/08/06 09:28:41;;;;;;;2.53;0.60;;;;;;;20.12;48.25;102858.72;5045990;28;20453;-36
2022/08/06 09:31:14;;;;;;;2.57;0.67;;;;;;;20.12;47.68;102842.25;5035910;28;20091;-36
2022/08/06 09:33:42;;;;;;;2.00;0.60;;;;;;;20.25;48.22;102847.41;5035235;28;20719;-36
2022/08/06 09:36:13;;;;;;;3.10;0.65;;;;;;;20.45;48.87;102838.69;5035541;28;20100;-36
2022/08/06 09:38:49;;;;;;;2.92;0.60;;;;;;;20.54;47.62;102840.78;5038039;28;20032;-36
2022/08/06 09:41:17;;;;;;;2.67;0.70;;;;;;;20.50;45.76;102847.91;5054745;28;20096;-36
2022/08/06 09:43:44;;;;;;;5.95;0.68;;;;;;;20.50;46.18;102838.81;5053770;28;20073;-36
2022/08/06 09:46:10;;;;;;;2.50;0.55;;;;;;;20.74;48.57;102848.56;5055340;28;20377;-36
2022/08/06 09:48:35;;;;;;;3.05;0.70;;;;;;;20.72;45.70;102850.72;5055138;28;20040;-36
2022/08/06 09:51:01;;;;;;;4.22;0.90;;;;;;;20.52;44.18;102847.63;5052365;28;20115;-36
2022/08/06 09:53:27;;;;;;;2.00;0.50;;;;;;;20.43;44.23;102860.09;5035257;28;20036;-36
2022/08/06 09:55:55;;;;;;;3.05;0.50;;;;;;;20.87;45.00;102857.53;5035353;28;20450;-36
2022/08/06 09:58:36;;;;;;;4.40;0.80;;;;;;;20.81;44.50;102862.94;5035096;28;20167;-36
2022/08/06 10:01:16;;;;;;;2.38;0.50;;;;;;;20.94;42.92;102845.28;5035137;28;20091;-36
2022/08/06 10:03:41;;;;;;;1.73;0.60;;;;;;;21.02;43.66;102858.59;5034921;28;20025;-36
2022/08/06 10:06:10;;;;;;;3.03;0.70;;;;;;;20.83;43.90;102849.78;5035547;28;20044;-36
2022/08/06 10:08:36;;;;;;;1.85;0.65;;;;;;;21.10;44.88;102846.34;5034383;28;20029;-36
2022/08/06 10:11:02;;;;;;;3.40;0.50;;;;;;;21.17;44.38;102846.97;5034951;28;20033;-36
2022/08/06 10:13:29;;;;;;;1.92;0.40;;;;;;;21.60;43.17;102850.88;5034705;28;20055;-36
2022/08/06 10:15:57;;;;;;;3.55;0.55;;;;;;;21.82;43.13;102845.34;5034425;28;20053;-36
2022/08/06 10:18:41;;;;;;;1.70;0.60;;;;;;;22.07;42.20;102853.06;5034422;28;20052;-36
2022/08/06 10:21:32;;;;;;;5.50;0.88;;;;;;;21.57;41.16;102848.66;5034485;28;20033;-36
2022/08/06 10:24:02;;;;;;;1.55;0.50;;;;;;;21.54;42.10;102847.22;5011410;28;20038;-36
2022/08/06 10:26:30;;;;;;;2.10;0.90;;;;;;;21.12;42.58;102841.41;5012715;28;20038;-36
2022/08/06 10:29:01;;;;;;;1.38;0.43;;;;;;;21.07;41.93;102844.91;4980119;28;20515;-36
2022/08/06 10:31:27;;;;;;;2.28;0.60;;;;;;;21.15;43.11;102843.66;5012281;28;20041;-36
2022/08/06 10:34:00;;;;;;;1.67;0.43;;;;;;;20.96;45.04;102832.09;5012167;28;20479;-36
2022/08/06 10:36:30;;;;;;;1.55;0.43;;;;;;;21.25;44.62;102834.69;5012535;28;20038;-36
2022/08/06 10:38:56;;;;;;;1.85;0.60;;;;;;;21.29;44.07;102811.09;5012260;28;20100;-36
2022/08/06 10:41:22;;;;;;;2.35;0.65;;;;;;;21.69;41.77;102819.03;5012260;28;20037;-36
2022/08/06 10:43:49;;;;;;;1.30;0.47;;;;;;;21.89;42.58;102814.84;5028590;28;20087;-36
2022/08/06 10:46:15;;;;;;;2.38;0.65;;;;;;;21.92;39.35;102808.81;5031751;28;20037;-36
2022/08/06 10:48:43;;;;;;;1.02;0.32;;;;;;;22.28;40.15;102810.84;5031518;28;20049;-36
2022/08/06 10:51:10;;;;;;;2.65;0.50;;;;;;;22.41;38.99;102828.03;5031538;28;20037;-37
2022/08/06 10:53:37;;;;;;;1.63;0.60;;;;;;;22.44;39.00;102822.81;5032151;28;20049;-36
2022/08/06 10:56:09;;;;;;;1.85;0.50;;;;;;;21.95;38.84;102822.06;5032317;28;20374;-36
2022/08/06 10:58:35;;;;;;;3.38;0.45;;;;;;;22.16;39.28;102818.47;5031726;28;20108;-36
2022/08/06 11:01:05;;;;;;;1.75;0.60;;;;;;;22.07;40.29;102820.81;5043632;28;20473;-36
2022/08/06 11:04:06;;;;;;;1.73;0.60;;;;;;;22.29;41.26;102819.94;5054254;28;20028;-36
2022/08/06 11:06:55;;;;;;;3.75;0.70;;;;;;;22.01;40.85;102812.75;5031352;28;20048;-36
2022/08/06 11:09:41;;;;;;;2.33;0.45;;;;;;;22.09;40.59;102817.78;5031612;28;20025;-36
2022/08/06 11:12:29;;;;;;;1.13;0.43;;;;;;;22.50;40.50;102818.19;5031988;28;20520;-36
2022/08/06 11:14:55;;;;;;;2.28;0.52;;;;;;;22.32;36.87;102797.38;5031939;28;20037;-36
2022/08/06 11:17:20;;;;;;;1.45;0.40;;;;;;;22.25;38.04;102810.53;5031273;28;20037;-36
2022/08/06 11:19:48;;;;;;;1.98;0.38;;;;;;;21.98;38.17;102810.53;5030975;28;20478;-36
2022/08/06 11:22:33;;;;;;;1.13;0.43;;;;;;;22.38;39.44;102801.81;5031362;28;20063;-36
2022/08/06 11:24:59;;;;;;;1.58;0.47;;;;;;;22.35;37.59;102808.72;5031469;28;20099;-36
2022/08/06 11:27:47;;;;;;;1.83;0.40;;;;;;;22.70;37.73;102804.56;5031088;28;20497;-36
2022/08/06 11:30:13;;;;;;;2.63;0.57;;;;;;;22.73;35.76;102806.75;5030978;28;20060;-36
2022/08/06 11:32:50;;;;;;;1.48;0.40;;;;;;;22.67;37.20;102802.31;5030919;28;20034;-36
2022/08/06 11:35:34;;;;;;;1.58;0.40;;;;;;;23.05;36.83;102803.13;5031406;28;20041;-36
2022/08/06 11:38:00;;;;;;;1.60;0.50;;;;;;;23.26;35.79;102788.31;5031424;28;20042;-36
2022/08/06 11:40:26;;;;;;;1.25;0.55;;;;;;;23.30;35.91;102796.91;5031134;28;20037;-36
2022/08/06 11:42:52;;;;;;;5.50;0.50;;;;;;;23.22;36.18;102784.44;5023802;28;20064;-36
2022/08/06 11:45:17;;;;;;;1.92;0.47;;;;;;;23.08;36.24;102797.91;5053045;28;20029;-36
2022/08/06 11:48:05;;;;;;;3.40;0.50;;;;;;;23.36;36.42;102787.53;5052985;28;20059;-36
2022/08/06 11:50:31;;;;;;;1.20;0.50;;;;;;;23.51;35.76;102789.50;5053740;28;20048;-36
2022/08/06 11:52:56;;;;;;;2.90;0.60;;;;;;;23.59;34.99;102781.53;5052879;28;20075;-36
2022/08/06 11:55:22;;;;;;;2.35;1.00;;;;;;;23.27;35.14;102778.13;5052903;28;20135;-36
2022/08/06 11:57:48;;;;;;;2.22;0.63;;;;;;;23.52;36.12;102774.59;5052628;28;20033;-36
2022/08/06 12:00:17;;;;;;;0.80;0.43;;;;;;;23.76;35.70;102773.03;5053161;28;20420;-36
2022/08/06 12:02:42;;;;;;;1.25;0.52;;;;;;;23.81;34.56;102772.22;5052928;28;20029;-36
2022/08/06 12:05:27;;;;;;;1.53;0.50;;;;;;;23.92;35.03;102771.16;5053264;28;20162;-36
2022/08/06 12:08:18;;;;;;;2.67;0.55;;;;;;;23.87;36.69;102768.38;5052594;28;20727;-36
2022/08/06 12:11:21;;;;;;;4.00;0.77;;;;;;;23.82;35.06;102769.19;5050622;28;20069;-36
2022/08/06 12:13:47;;;;;;;3.15;0.60;;;;;;;23.70;35.69;102763.09;5042557;28;20056;-36
2022/08/06 12:16:35;;;;;;;1.23;0.40;;;;;;;23.66;36.34;102763.91;5032616;28;20413;-36
2022/08/06 12:19:02;;;;;;;1.33;0.40;;;;;;;23.82;35.67;102765.59;5013287;28;20517;-36
2022/08/06 12:21:28;;;;;;;1.48;0.40;;;;;;;23.82;36.42;102755.38;5011224;28;20425;-36
2022/08/06 12:23:54;;;;;;;3.55;1.10;;;;;;;24.13;35.50;102753.47;5013193;28;20525;-36